Terminal Aerodrome Forecast
Issued by NWS

Home | Current Version | Previous Version | Text Only | Print | Product List | Glossary On
Versions: 1 2 3 4 5 6 7 8 9 10 11 12 13 14 15 16
586
FTUS42 KTAE 260553 CCA
TAFABY
TAF COR
KABY 260553Z 2606/2706 00000KT 3SM BR SCT002 BKN030
      TEMPO 2606/2609 1SM BR BKN002
     FM260900 00000KT 1/2SM FG BKN002
     FM261400 02006KT P6SM SCT030=

USA.gov is the U.S. government's official web portal to all federal, state and local government web resources and services.